Terminal Aerodrome Forecast
Issued by NWS Topeka, KS

Home | Current Version | Previous Version | Text Only | Print | Product List | Glossary On
Versions: 1 2 3 4 5 6 7 8 9 10 11 12 13 14 15 16 17 18 19 20 21
000
FTUS43 KTOP 072332
TAFTOP
TAF
KTOP 072332Z 0800/0824 03003KT P6SM -SHRA SCT035 BKN080
     FM081100 05002KT 6SM -SHRA BR SCT015 OVC025
     FM081400 04005KT 4SM -RA BR OVC008=

USA.gov is the U.S. government's official web portal to all federal, state and local government web resources and services.